createdAt,value
2022-12-17T00:02:02.552Z,96928.00
2022-12-17T00:04:49.241Z,96938.00
2022-12-17T00:07:35.390Z,96935.28
2022-12-17T00:10:20.653Z,96932.75
2022-12-17T00:13:06.194Z,96926.94
2022-12-17T00:15:51.906Z,96922.88
2022-12-17T00:18:37.350Z,96928.59
2022-12-17T00:21:22.849Z,96920.75
2022-12-17T00:24:08.167Z,96929.75
2022-12-17T00:26:53.688Z,96925.53
2022-12-17T00:29:38.675Z,96916.75
2022-12-17T00:32:24.231Z,96921.50
2022-12-17T00:35:09.902Z,96919.13
2022-12-17T00:37:55.102Z,96914.13
2022-12-17T00:40:41.540Z,96903.16
2022-12-17T00:43:29.287Z,96904.06
2022-12-17T00:46:14.950Z,96906.47
2022-12-17T00:49:10.895Z,96902.81
2022-12-17T00:51:56.571Z,96903.69
2022-12-17T00:54:41.908Z,96898.47
2022-12-17T00:57:29.017Z,96913.38
2022-12-17T01:00:15.775Z,96896.91
2022-12-17T01:03:01.267Z,96896.34
2022-12-17T01:05:46.506Z,96904.53
2022-12-17T01:08:33.427Z,96894.78
2022-12-17T01:11:19.387Z,96887.13
2022-12-17T01:14:05.199Z,96887.22
2022-12-17T01:16:50.359Z,96900.13
2022-12-17T01:19:35.649Z,96894.69
2022-12-17T01:22:21.007Z,96892.47
2022-12-17T01:25:06.058Z,96890.72
2022-12-17T01:27:51.965Z,96895.56
2022-12-17T01:30:37.311Z,96896.03
2022-12-17T01:33:26.917Z,96893.63
2022-12-17T01:36:21.311Z,96903.31
2022-12-17T01:39:06.632Z,96904.69
2022-12-17T01:41:51.827Z,96896.34
2022-12-17T01:44:55.884Z,96889.59
2022-12-17T01:47:40.999Z,96884.41
2022-12-17T01:50:26.769Z,96882.22
2022-12-17T01:53:14.810Z,96886.94
2022-12-17T01:56:01.019Z,96876.19
2022-12-17T01:58:46.336Z,96890.09
2022-12-17T02:01:31.404Z,96871.28
2022-12-17T02:04:16.762Z,96890.44
2022-12-17T02:07:06.147Z,96891.53
2022-12-17T02:10:02.170Z,96895.69
2022-12-17T02:12:53.344Z,96871.38
2022-12-17T02:15:46.825Z,96878.81
2022-12-17T02:18:37.687Z,96890.16
2022-12-17T02:21:25.462Z,96880.91
2022-12-17T02:24:22.761Z,96875.22
2022-12-17T02:27:10.400Z,96877.56
2022-12-17T02:30:07.895Z,96860.31
2022-12-17T02:32:53.639Z,96861.28
2022-12-17T02:35:41.736Z,96866.53
2022-12-17T02:38:40.822Z,96865.56
2022-12-17T02:41:28.911Z,96864.47
2022-12-17T02:44:14.566Z,96864.75
2022-12-17T02:47:00.844Z,96868.34
2022-12-17T02:49:47.580Z,96871.78
2022-12-17T02:52:35.164Z,96875.09
2022-12-17T02:55:20.870Z,96863.78
2022-12-17T02:58:06.213Z,96884.34
2022-12-17T03:00:51.490Z,96887.81
2022-12-17T03:03:37.321Z,96898.44
2022-12-17T03:06:30.569Z,96893.72
2022-12-17T03:09:15.596Z,96902.41
2022-12-17T03:12:00.721Z,96896.88
2022-12-17T03:14:45.851Z,96901.44
2022-12-17T03:17:31.346Z,96903.69
2022-12-17T03:20:16.725Z,96893.16
2022-12-17T03:23:01.893Z,96896.34
2022-12-17T03:25:46.912Z,96892.63
2022-12-17T03:28:31.986Z,96900.94
2022-12-17T03:31:17.850Z,96899.00
2022-12-17T03:34:03.913Z,96883.38
2022-12-17T03:36:49.064Z,96879.81
2022-12-17T03:39:34.258Z,96878.56
2022-12-17T03:42:19.510Z,96878.53
2022-12-17T03:45:05.273Z,96867.09
2022-12-17T03:47:50.476Z,96864.72
2022-12-17T03:50:35.634Z,96863.63
2022-12-17T03:53:23.871Z,96866.66
2022-12-17T03:56:08.891Z,96872.19
2022-12-17T03:58:54.059Z,96859.22
2022-12-17T04:01:39.439Z,96856.41
2022-12-17T04:04:24.839Z,96849.22
2022-12-17T04:07:10.014Z,96855.28
2022-12-17T04:09:55.148Z,96849.56
2022-12-17T04:12:40.335Z,96842.00
2022-12-17T04:15:25.938Z,96835.34
2022-12-17T04:18:11.069Z,96839.19
2022-12-17T04:20:56.125Z,96833.44
2022-12-17T04:23:51.903Z,96829.28
2022-12-17T04:26:37.062Z,96829.16
2022-12-17T04:29:22.289Z,96829.16
2022-12-17T04:32:07.870Z,96823.19
2022-12-17T04:34:53.091Z,96817.16
2022-12-17T04:37:38.413Z,96809.41
2022-12-17T04:40:23.702Z,96807.22
2022-12-17T04:43:08.677Z,96807.97
2022-12-17T04:45:53.716Z,96810.84
2022-12-17T04:48:41.804Z,96796.44
2022-12-17T04:51:27.009Z,96810.22
2022-12-17T04:54:12.228Z,96822.22
2022-12-17T04:56:57.304Z,96822.41
2022-12-17T04:59:42.560Z,96828.66
2022-12-17T05:02:27.786Z,96835.22
2022-12-17T05:05:13.401Z,96839.13
2022-12-17T05:07:58.686Z,96839.19
2022-12-17T05:10:43.942Z,96847.78
2022-12-17T05:13:29.414Z,96839.88
2022-12-17T05:16:15.575Z,96858.31
2022-12-17T05:19:01.655Z,96866.84
2022-12-17T05:21:47.008Z,96871.38
2022-12-17T05:24:32.253Z,96873.72
2022-12-17T05:27:17.861Z,96872.06
2022-12-17T05:30:03.110Z,96864.19
2022-12-17T05:32:48.426Z,96866.47
2022-12-17T05:35:33.490Z,96862.56
2022-12-17T05:38:22.730Z,96861.84
2022-12-17T05:41:07.861Z,96860.00
2022-12-17T05:43:52.954Z,96851.59
2022-12-17T05:46:38.189Z,96861.75
2022-12-17T05:49:23.228Z,96861.94
2022-12-17T05:52:08.480Z,96864.41
2022-12-17T05:54:54.022Z,96883.69
2022-12-17T05:57:39.077Z,96877.34
2022-12-17T06:00:27.809Z,96877.75
2022-12-17T06:03:20.978Z,96882.69
2022-12-17T06:06:07.056Z,96893.50
2022-12-17T06:08:53.750Z,96893.00
2022-12-17T06:11:39.211Z,96906.59
2022-12-17T06:14:31.928Z,96882.44
2022-12-17T06:17:17.020Z,96873.94
2022-12-17T06:20:02.159Z,96870.66
2022-12-17T06:22:47.388Z,96876.94
2022-12-17T06:25:32.781Z,96876.41
2022-12-17T06:28:19.529Z,96854.00
2022-12-17T06:31:11.338Z,96875.59
2022-12-17T06:33:56.800Z,96865.63
2022-12-17T06:36:42.024Z,96873.94
2022-12-17T06:39:28.082Z,96885.66
2022-12-17T06:42:13.185Z,96877.03
2022-12-17T06:44:58.813Z,96884.00
2022-12-17T06:47:43.814Z,96894.06
2022-12-17T06:50:29.333Z,96883.00
2022-12-17T06:53:18.721Z,96882.81
2022-12-17T06:56:04.124Z,96885.94
2022-12-17T06:58:49.460Z,96911.66
2022-12-17T07:01:34.896Z,96916.41
2022-12-17T07:04:20.362Z,96916.06
2022-12-17T07:07:05.588Z,96914.94
2022-12-17T07:09:50.533Z,96949.53
2022-12-17T07:12:35.608Z,96944.28
2022-12-17T07:15:20.698Z,96973.56
2022-12-17T07:18:15.012Z,96958.97
2022-12-17T07:21:00.017Z,96958.00
2022-12-17T07:23:45.712Z,96964.13
2022-12-17T07:26:30.876Z,96980.31
2022-12-17T07:29:16.077Z,96969.88
2022-12-17T07:32:01.359Z,96984.78
2022-12-17T07:34:46.590Z,96986.06
2022-12-17T07:37:31.811Z,96989.81
2022-12-17T07:40:16.889Z,96997.22
2022-12-17T07:43:01.890Z,96986.75
2022-12-17T07:45:47.592Z,96991.88
2022-12-17T07:48:33.223Z,97001.31
2022-12-17T07:51:18.310Z,96988.41
2022-12-17T07:54:03.997Z,96988.41
2022-12-17T07:56:49.307Z,97014.06
2022-12-17T07:59:35.868Z,97021.00
2022-12-17T08:02:21.101Z,97008.44
2022-12-17T08:06:02.075Z,97010.56
2022-12-17T08:08:48.100Z,96975.41
2022-12-17T08:11:33.638Z,97030.75
2022-12-17T08:14:19.384Z,97012.25
2022-12-17T08:17:05.249Z,96983.38
2022-12-17T08:19:50.762Z,96993.97
2022-12-17T08:22:36.379Z,96981.00
2022-12-17T08:25:21.979Z,96973.03
2022-12-17T08:28:11.223Z,96977.78
2022-12-17T08:31:08.454Z,96976.66
2022-12-17T08:33:53.842Z,96981.44
2022-12-17T08:36:39.539Z,96993.56
2022-12-17T08:39:25.006Z,97002.34
2022-12-17T08:42:10.861Z,97008.22
2022-12-17T08:45:04.245Z,97010.06
2022-12-17T08:47:49.868Z,97021.50
2022-12-17T08:50:38.009Z,97041.69
2022-12-17T08:53:28.516Z,97070.81
2022-12-17T08:56:17.131Z,97097.00
2022-12-17T08:59:04.533Z,97102.59
2022-12-17T09:01:52.000Z,97100.38
2022-12-17T09:04:40.422Z,97101.50
2022-12-17T09:07:26.922Z,97111.03
2022-12-17T09:10:14.032Z,97108.72
2022-12-17T09:13:04.588Z,97117.59
2022-12-17T09:15:50.911Z,97116.25
2022-12-17T09:18:40.794Z,97128.41
2022-12-17T09:21:27.641Z,97150.72
2022-12-17T09:24:12.986Z,97165.75
2022-12-17T09:26:58.679Z,97174.66
2022-12-17T09:29:44.155Z,97169.38
2022-12-17T09:32:29.717Z,97181.91
2022-12-17T09:35:15.214Z,97185.38
2022-12-17T09:38:20.733Z,97160.19
2022-12-17T09:41:08.513Z,97172.25
2022-12-17T09:44:02.904Z,97160.97
2022-12-17T09:47:10.074Z,97170.22
2022-12-17T09:49:56.106Z,97161.38
2022-12-17T09:52:50.265Z,97173.41
2022-12-17T09:56:13.336Z,97168.78
2022-12-17T09:58:59.893Z,97175.03
2022-12-17T10:01:53.387Z,97155.97
2022-12-17T10:04:57.402Z,97129.72
2022-12-17T10:07:47.524Z,97130.38
2022-12-17T10:10:41.124Z,97116.09
2022-12-17T10:13:44.728Z,97085.81
2022-12-17T10:17:07.088Z,97075.06
2022-12-17T10:20:00.639Z,97070.28
2022-12-17T10:22:51.250Z,97074.59
2022-12-17T10:25:41.927Z,97067.38
2022-12-17T10:28:32.064Z,97061.59
2022-12-17T10:31:19.236Z,97075.69
2022-12-17T10:34:05.848Z,97063.13
2022-12-17T10:36:51.192Z,97048.88
2022-12-17T10:39:41.378Z,97066.41
2022-12-17T10:42:56.984Z,97085.28
2022-12-17T10:45:48.715Z,97136.91
2022-12-17T10:48:46.989Z,97169.34
2022-12-17T10:51:54.732Z,97192.19
2022-12-17T10:54:49.297Z,97203.41
2022-12-17T10:57:56.818Z,97196.16
2022-12-17T11:00:50.145Z,97202.56
2022-12-17T11:04:10.713Z,97227.41
2022-12-17T11:07:36.488Z,97259.78
2022-12-17T11:10:24.568Z,97265.59
2022-12-17T11:13:22.586Z,97268.81
2022-12-17T11:16:17.020Z,97284.97
2022-12-17T11:19:28.355Z,97278.09
2022-12-17T11:22:22.097Z,97294.53
2022-12-17T11:25:24.951Z,97283.19
2022-12-17T11:28:22.196Z,97279.25
2022-12-17T11:31:34.487Z,97274.28
2022-12-17T11:34:30.554Z,97270.38
2022-12-17T11:37:29.981Z,97260.75
2022-12-17T11:40:32.995Z,97253.91
2022-12-17T11:43:53.835Z,97257.13
2022-12-17T11:47:14.771Z,97252.50
2022-12-17T11:50:23.492Z,97238.59
2022-12-17T11:53:27.500Z,97237.59
2022-12-17T11:56:32.227Z,97239.09
2022-12-17T11:59:55.900Z,97225.78
2022-12-17T12:03:18.035Z,97230.25
2022-12-17T12:06:16.706Z,97235.91
2022-12-17T12:09:11.130Z,97226.34
2022-12-17T12:12:18.814Z,97222.88
2022-12-17T12:15:23.726Z,97221.03
2022-12-17T12:18:22.156Z,97212.91
2022-12-17T12:21:32.361Z,97218.53
2022-12-17T12:24:35.848Z,97229.00
2022-12-17T12:27:37.721Z,97216.56
2022-12-17T12:30:39.547Z,97234.47
2022-12-17T12:33:40.101Z,97299.03
2022-12-17T12:36:30.106Z,97345.06
2022-12-17T12:39:16.918Z,97357.44
2022-12-17T12:42:14.228Z,97346.09
2022-12-17T12:45:02.816Z,97310.22
2022-12-17T12:47:55.693Z,97282.38
2022-12-17T12:50:58.994Z,97278.97
2022-12-17T12:53:44.649Z,97264.00
2022-12-17T12:56:53.203Z,97257.97
2022-12-17T12:59:49.205Z,97237.03
2022-12-17T13:02:46.307Z,97244.69
2022-12-17T13:05:34.406Z,97229.47
2022-12-17T13:08:20.236Z,97226.28
2022-12-17T13:10:48.061Z,97226.28
2022-12-17T13:13:18.408Z,97226.28
2022-12-17T13:15:49.823Z,97229.69
2022-12-17T13:18:34.415Z,97247.25
2022-12-17T13:21:26.180Z,97239.44
2022-12-17T13:23:53.876Z,97229.50
2022-12-17T13:26:43.434Z,97213.13
2022-12-17T13:29:42.513Z,97214.28
2022-12-17T13:32:20.171Z,97207.78
2022-12-17T13:35:33.564Z,97219.44
2022-12-17T13:38:05.243Z,97217.72
2022-12-17T13:40:57.647Z,97216.22
2022-12-17T13:43:31.509Z,97224.59
2022-12-17T13:45:59.406Z,97219.63
2022-12-17T13:48:29.755Z,97226.03
2022-12-17T13:51:02.593Z,97221.72
2022-12-17T13:53:34.631Z,97216.97
2022-12-17T13:56:02.272Z,97212.75
2022-12-17T13:58:33.055Z,97210.03
2022-12-17T14:01:07.578Z,97236.13
2022-12-17T14:04:04.244Z,97235.53
2022-12-17T14:06:24.107Z,97239.44
2022-12-17T14:08:54.430Z,97244.88
2022-12-17T14:11:59.960Z,97235.00
2022-12-17T14:14:35.333Z,97238.69
2022-12-17T14:17:02.983Z,97222.38
2022-12-17T14:19:32.285Z,97244.84
2022-12-17T14:22:00.637Z,97237.38
2022-12-17T14:24:29.682Z,97252.38
2022-12-17T14:27:01.126Z,97255.97
2022-12-17T14:29:32.754Z,97262.91
2022-12-17T14:32:03.247Z,97271.50
2022-12-17T14:34:42.205Z,97272.94
2022-12-17T14:37:17.772Z,97264.47
2022-12-17T14:39:47.262Z,97254.81
2022-12-17T14:42:25.987Z,97265.78
2022-12-17T14:45:07.460Z,97262.47
2022-12-17T14:47:37.558Z,97267.94
2022-12-17T14:50:24.319Z,97281.81
2022-12-17T14:52:55.690Z,97291.13
2022-12-17T14:55:35.670Z,97290.72
2022-12-17T14:58:08.663Z,97293.91
2022-12-17T15:00:39.558Z,97303.91
2022-12-17T15:03:07.026Z,97300.31
2022-12-17T15:05:35.814Z,97309.75
2022-12-17T15:08:06.698Z,97313.09
2022-12-17T15:10:33.975Z,97322.50
2022-12-17T15:13:01.349Z,97325.28
2022-12-17T15:15:28.760Z,97337.88
2022-12-17T15:17:55.966Z,97340.22
2022-12-17T15:20:23.142Z,97339.94
2022-12-17T15:22:50.246Z,97342.97
2022-12-17T15:25:19.712Z,97371.25
2022-12-17T15:27:47.146Z,97378.72
2022-12-17T15:30:17.542Z,97397.97
2022-12-17T15:32:45.888Z,97390.34
2022-12-17T15:35:14.973Z,97399.63
2022-12-17T15:37:42.494Z,97406.97
2022-12-17T15:40:12.370Z,97416.63
2022-12-17T15:43:01.677Z,97413.63
2022-12-17T15:45:50.993Z,97422.13
2022-12-17T15:48:26.664Z,97433.13
2022-12-17T15:50:54.280Z,97447.19
2022-12-17T15:53:21.769Z,97451.28
2022-12-17T15:55:49.071Z,97456.34
2022-12-17T15:58:26.101Z,97464.22
2022-12-17T16:00:54.126Z,97470.59
2022-12-17T16:03:22.555Z,97477.59
2022-12-17T16:05:49.963Z,97494.44
2022-12-17T16:08:17.246Z,97493.03
2022-12-17T16:10:44.781Z,97498.41
2022-12-17T16:13:12.630Z,97504.63
2022-12-17T16:15:39.676Z,97501.59
2022-12-17T16:18:06.990Z,97502.47
2022-12-17T16:20:34.258Z,97512.44
2022-12-17T16:23:01.532Z,97515.78
2022-12-17T16:25:28.955Z,97512.91
2022-12-17T16:27:56.222Z,97517.47
2022-12-17T16:30:23.473Z,97527.41
2022-12-17T16:32:50.762Z,97517.97
2022-12-17T16:35:18.328Z,97515.66
2022-12-17T16:37:45.440Z,97526.56
2022-12-17T16:40:12.824Z,97539.97
2022-12-17T16:42:39.968Z,97537.59
2022-12-17T16:45:08.100Z,97542.34
2022-12-17T16:47:35.215Z,97546.19
2022-12-17T16:50:02.803Z,97555.88
2022-12-17T16:52:30.397Z,97558.63
2022-12-17T16:54:57.625Z,97569.13
2022-12-17T16:57:25.350Z,97562.47
2022-12-17T16:59:55.849Z,97573.44
2022-12-17T17:02:23.156Z,97579.66
2022-12-17T17:04:50.935Z,97573.94
2022-12-17T17:07:18.682Z,97585.44
2022-12-17T17:09:48.778Z,97596.53
2022-12-17T17:12:16.448Z,97589.34
2022-12-17T17:14:44.697Z,97596.41
2022-12-17T17:17:12.759Z,97593.50
2022-12-17T17:19:40.449Z,97596.47
2022-12-17T17:22:08.323Z,97598.88
2022-12-17T17:24:36.454Z,97605.69
2022-12-17T17:27:04.026Z,97611.53
2022-12-17T17:29:31.622Z,97626.09
2022-12-17T17:32:10.595Z,97620.72
2022-12-17T17:34:39.873Z,97619.91
2022-12-17T17:37:07.581Z,97629.31
2022-12-17T17:39:35.054Z,97635.41
2022-12-17T17:42:03.278Z,97637.94
2022-12-17T17:44:34.110Z,97633.09
2022-12-17T17:47:02.345Z,97647.69
2022-12-17T17:49:29.534Z,97647.44
2022-12-17T17:52:15.628Z,97644.94
2022-12-17T17:54:42.948Z,97647.44
2022-12-17T17:57:11.214Z,97659.59
2022-12-17T17:59:40.218Z,97659.59
2022-12-17T18:02:08.900Z,97662.56
2022-12-17T18:04:40.054Z,97658.03
2022-12-17T18:09:55.191Z,97652.69
2022-12-17T18:12:41.604Z,97664.38
2022-12-17T18:15:14.795Z,97664.38
2022-12-17T18:17:43.594Z,97664.63
2022-12-17T18:20:11.080Z,97672.75
2022-12-17T18:22:41.287Z,97668.66
2022-12-17T18:25:08.929Z,97662.56
2022-12-17T18:27:36.187Z,97675.41
2022-12-17T18:30:04.444Z,97673.88
2022-12-17T18:33:01.809Z,97682.59
2022-12-17T18:35:28.935Z,97675.19
2022-12-17T18:37:56.358Z,97671.88
2022-12-17T18:40:24.337Z,97672.56
2022-12-17T18:43:12.509Z,97683.28
2022-12-17T18:45:39.761Z,97679.25
2022-12-17T18:48:06.933Z,97686.28
2022-12-17T18:50:35.218Z,97677.81
2022-12-17T18:53:02.809Z,97686.19
2022-12-17T18:55:29.961Z,97679.25
2022-12-17T18:57:57.235Z,97690.00
2022-12-17T19:00:24.492Z,97694.31
2022-12-17T19:02:51.709Z,97690.28
2022-12-17T19:05:19.095Z,97696.97
2022-12-17T19:07:46.743Z,97699.09
2022-12-17T19:10:13.848Z,97706.31
2022-12-17T19:12:40.911Z,97713.22
2022-12-17T19:15:08.634Z,97711.41
2022-12-17T19:17:35.695Z,97712.25
2022-12-17T19:20:02.761Z,97713.66
2022-12-17T19:22:29.820Z,97717.41
2022-12-17T19:24:56.837Z,97713.94
2022-12-17T19:27:24.786Z,97717.06
2022-12-17T19:29:51.735Z,97730.91
2022-12-17T19:32:18.828Z,97727.81
2022-12-17T19:34:46.322Z,97731.66
2022-12-17T19:37:13.550Z,97743.75
2022-12-17T19:39:40.620Z,97756.50
2022-12-17T19:42:25.182Z,97750.28
2022-12-17T19:44:53.716Z,97744.66
2022-12-17T19:47:21.441Z,97751.72
2022-12-17T19:49:48.562Z,97750.78
2022-12-17T19:52:15.751Z,97760.91
2022-12-17T19:54:43.113Z,97765.34
2022-12-17T19:57:10.546Z,97750.63
2022-12-17T19:59:38.096Z,97765.09
2022-12-17T20:02:05.474Z,97765.00
2022-12-17T20:04:32.788Z,97763.56
2022-12-17T20:07:01.020Z,97775.16
2022-12-17T20:09:28.413Z,97779.59
2022-12-17T20:11:55.667Z,97788.44
2022-12-17T20:14:26.820Z,97788.69
2022-12-17T20:16:58.042Z,97789.38
2022-12-17T20:19:28.053Z,97800.16
2022-12-17T20:21:55.759Z,97802.19
2022-12-17T20:24:30.381Z,97811.03
2022-12-17T20:26:58.781Z,97808.53
2022-12-17T20:29:26.207Z,97806.59
2022-12-17T20:31:55.026Z,97816.28
2022-12-17T20:34:22.335Z,97804.81
2022-12-17T20:36:50.537Z,97801.94
2022-12-17T20:39:26.169Z,97804.56
2022-12-17T20:41:54.660Z,97804.09
2022-12-17T20:44:22.105Z,97808.38
2022-12-17T20:46:49.180Z,97812.94
2022-12-17T20:49:16.353Z,97811.25
2022-12-17T20:51:43.922Z,97812.94
2022-12-17T20:54:11.798Z,97817.69
2022-12-17T20:56:39.279Z,97816.78
2022-12-17T20:59:08.940Z,97829.78
2022-12-17T21:01:37.630Z,97829.78
2022-12-17T21:04:07.803Z,97834.22
2022-12-17T21:06:41.465Z,97828.81
2022-12-17T21:09:09.196Z,97825.88
2022-12-17T21:11:39.075Z,97822.88
2022-12-17T21:14:09.710Z,97837.53
2022-12-17T21:16:38.624Z,97839.84
2022-12-17T21:19:07.693Z,97838.66
2022-12-17T21:21:37.392Z,97833.97
2022-12-17T21:24:05.338Z,97830.63
2022-12-17T21:26:33.411Z,97835.66
2022-12-17T21:29:02.569Z,97848.06
2022-12-17T21:31:32.881Z,97846.03
2022-12-17T21:34:03.507Z,97853.09
2022-12-17T21:36:32.682Z,97857.03
2022-12-17T21:39:00.639Z,97858.84
2022-12-17T21:41:32.339Z,97858.13
2022-12-17T21:44:02.445Z,97852.03
2022-12-17T21:46:30.467Z,97859.06
2022-12-17T21:48:58.809Z,97857.41
2022-12-17T21:51:27.038Z,97854.78
2022-12-17T21:53:56.650Z,97840.91
2022-12-17T21:56:24.578Z,97853.81
2022-12-17T21:58:59.979Z,97859.69
2022-12-17T22:01:32.214Z,97855.72
2022-12-17T22:04:01.114Z,97866.59
2022-12-17T22:06:37.636Z,97865.75
2022-12-17T22:09:22.990Z,97863.97
2022-12-17T22:12:21.103Z,97864.09
2022-12-17T22:14:48.337Z,97878.16
2022-12-17T22:17:18.626Z,97883.94
2022-12-17T22:19:45.673Z,97894.22
2022-12-17T22:22:12.681Z,97883.94
2022-12-17T22:24:40.022Z,97899.47
2022-12-17T22:27:09.535Z,97899.47
2022-12-17T22:29:55.885Z,97890.03
2022-12-17T22:32:41.614Z,97886.88
2022-12-17T22:37:35.244Z,97892.16
2022-12-17T22:41:11.171Z,97894.69
2022-12-17T22:44:12.738Z,97901.81
2022-12-17T22:44:40.878Z,97913.44
2022-12-17T22:46:19.880Z,97918.53
2022-12-17T22:48:46.883Z,97919.25
2022-12-17T22:51:17.583Z,97923.06
2022-12-17T22:54:06.167Z,97919.59
2022-12-17T22:57:32.473Z,97930.72
2022-12-17T22:59:25.184Z,97942.91
2022-12-17T23:01:52.211Z,97939.78
2022-12-17T23:04:19.561Z,97936.47
2022-12-17T23:06:47.161Z,97946.34
2022-12-17T23:09:19.621Z,97941.94
2022-12-17T23:11:48.249Z,97945.03
2022-12-17T23:14:15.696Z,97950.31
2022-12-17T23:16:42.959Z,97958.91
2022-12-17T23:19:10.467Z,97958.31
2022-12-17T23:21:38.014Z,97958.91
2022-12-17T23:24:05.548Z,97960.09
2022-12-17T23:26:35.243Z,97953.63
2022-12-17T23:29:08.507Z,97961.25
2022-12-17T23:31:38.523Z,97966.78
2022-12-17T23:34:06.170Z,97965.41
2022-12-17T23:36:33.704Z,97966.81
2022-12-17T23:39:00.956Z,97965.03
2022-12-17T23:41:31.963Z,97966.00
2022-12-17T23:43:59.600Z,97966.22
2022-12-17T23:46:31.963Z,97962.88
2022-12-17T23:48:59.464Z,97964.97
2022-12-17T23:51:26.954Z,97963.53
2022-12-17T23:53:54.286Z,97964.16
2022-12-17T23:56:24.354Z,97977.84
2022-12-17T23:58:59.743Z,97985.22
